Latest Coastal Weather Observations for Carnarvon

IDW60701

Issued at 7:11 am WST Thursday 5 May 2016 (issued every 10 minutes, with the page automatically refreshed every 10 minutes)

About coastal observations | Map of coastal stations | Coastal observations for WA | Marine services | Other Formats
Station Details ID: 006011 Name: CARNARVON AIRPORT Lat: -24.89 Lon: 113.67 Height: 4.0 m
Data from the previous 72 hours. | See also: Recent months at Carnarvon
Date/Time
WST
Temp

°C
Wind Pressure Rain
since 9am
mm
Weather Cloud Vis
km
Sea
Height
m
Swell
Dir
 
Speed
knots
Gust
knots
hPa Trend Height
m
Period
s
Dir
05/07:00am 20.0 S 13 17 1011.4 - 0.0 - - 10 - - - -
05/06:30am 20.1 S 13 17 1011.0 - 0.0 - - 10 - - - -
05/06:00am 20.2 S 13 18 1010.9 - 0.0 - - 10 - - - -
05/05:30am 20.3 S 13 17 1010.6 - 0.0 - - 10 - - - -
05/05:00am 20.4 S 13 17 1010.4 - 0.0 - - 10 - - - -
05/04:30am 20.5 S 12 16 1010.3 - 0.0 - - 10 - - - -
05/04:00am 20.7 S 12 16 1010.3 - 0.0 - - 10 - - - -
05/03:30am 20.8 S 13 18 1010.4 - 0.0 - - 10 - - - -
05/03:00am 20.9 S 12 17 1010.6 - 0.0 - Mostly clear 10 - - - -
05/02:30am 21.0 S 12 15 1010.7 - 0.0 - Partly cloudy 10 - - - -
05/02:00am 21.1 S 12 17 1010.9 - 0.0 - - 10 - - - -
05/01:30am 21.2 S 12 17 1011.1 - 0.0 - Partly cloudy 10 - - - -
05/01:00am 21.5 S 13 18 1011.2 - 0.0 - Partly cloudy 10 - - - -
05/12:30am 21.4 S 13 15 1011.6 - 0.0 - - 10 - - - -
05/12:00am 21.6 S 10 13 1011.8 - 0.0 - Partly cloudy 10 - - - -
 
Date/Time
WST
Temp

°C
Wind Pressure Rain
since 9am
mm
Weather Cloud Vis
km
Sea
Height
m
Swell
Dir
 
Speed
knots
Gust
knots
hPa Trend Height
m
Period
s
Dir
04/11:30pm 21.5 S 8 11 1012.2 - 0.0 - Partly cloudy 10 - - - -
04/11:00pm 21.6 SSW 7 9 1012.2 - 0.0 - Partly cloudy 10 - - - -
04/10:30pm 21.8 S 10 13 1012.0 - 0.0 - - 10 - - - -
04/10:00pm 22.0 SSW 10 12 1012.1 - 0.0 - Partly cloudy 10 - - - -
04/09:30pm 22.1 SSW 9 11 1011.9 - 0.0 - Partly cloudy 10 - - - -
04/09:00pm 22.1 SSW 10 13 1011.5 - 0.0 - - 10 - - - -
04/08:30pm 22.1 S 6 8 1011.3 - 0.0 - Partly cloudy 10 - - - -
04/08:00pm 22.5 S 8 11 1010.8 - 0.0 - Partly cloudy 10 - - - -
04/07:30pm 22.6 S 7 9 1010.9 - 0.0 - Partly cloudy 10 - - - -
04/07:00pm 22.6 SSW 9 11 1010.5 - 0.0 - - 10 - - - -
04/06:30pm 22.8 SSW 9 11 1010.4 - 0.0 - - 10 - - - -
04/06:00pm 22.9 SW 8 11 1009.9 - 0.0 - - 10 - - - -
04/05:30pm 23.0 SSW 8 10 1009.8 - 0.0 - - 10 - - - -
04/05:00pm 23.2 SSW 8 9 1009.7 - 0.0 - Partly cloudy 10 - - - -
04/04:30pm 23.6 SSW 8 12 1009.7 - 0.0 - Partly cloudy 10 - - - -
04/04:00pm 23.8 S 10 14 1009.6 - 0.0 - Partly cloudy 10 - - - -
04/03:30pm 23.6 SSW 10 13 1009.5 - 0.0 - - 10 - - - -
04/03:00pm 23.8 SSW 11 15 1009.6 - 0.0 Fine Cloudy 27 - - - -
04/02:30pm 24.0 SSW 9 12 1009.5 - 0.0 - Partly cloudy 10 - - - -
04/02:00pm 24.8 SSW 8 11 1009.5 - 0.0 - Partly cloudy 10 - - - -
04/01:30pm 25.6 SSW 6 8 1009.7 - 0.0 - Partly cloudy 10 - - - -
04/01:00pm 24.5 SSW 7 9 1009.9 - 0.0 - Partly cloudy 10 - - - -
04/12:30pm 25.4 SW 6 7 1010.1 - 0.0 - Partly cloudy 10 - - - -
04/12:00pm 25.6 SSW 5 8 1010.5 - 0.0 - Mostly cloudy 10 - - - -
04/11:30am 27.1 S 5 8 1010.7 - 0.0 - Partly cloudy 10 - - - -
04/11:00am 28.1 SE 7 9 1011.2 - 0.0 - - 10 - - - -
04/10:30am 28.0 SE 7 9 1011.6 - 0.0 - - 10 - - - -
04/10:00am 26.5 SE 10 13 1011.6 - 0.0 - - 10 - - - -
04/09:30am 25.1 SE 11 13 1011.6 - 0.0 - - 10 - - - -
04/09:00am 24.0 SE 11 13 1011.6 - 0.0 Fine Cloudy 27 - - - -
04/08:30am 23.1 SSE 11 16 1011.8 - 0.0 - - 10 - - - -
04/08:00am 22.2 SSE 11 13 1011.5 - 0.0 - - 10 - - - -
04/07:30am 21.3 SSE 9 12 1011.3 - 0.0 - - 10 - - - -
04/07:00am 21.0 SSE 9 11 1011.1 - 0.0 - - 10 - - - -
04/06:30am 21.2 SSE 8 10 1011.1 - 0.0 - Partly cloudy 10 - - - -
04/06:00am 21.4 SSE 8 11 1011.1 - 0.0 - Partly cloudy 10 - - - -
04/05:30am 21.5 SSE 8 11 1010.9 - 0.0 - Partly cloudy 10 - - - -
04/05:00am 21.6 SSE 8 11 1011.1 - 0.0 - Partly cloudy 10 - - - -
04/04:30am 21.7 SSE 8 11 1011.3 - 0.0 - Partly cloudy 10 - - - -
04/04:00am 21.9 SSE 9 12 1011.3 - 0.0 - Partly cloudy 10 - - - -
04/03:30am 22.0 SSE 11 14 1011.0 - 0.0 - Partly cloudy 10 - - - -
04/03:00am 22.2 SSE 12 16 1011.2 - 0.0 - - 10 - - - -
04/02:30am 22.1 SSE 11 14 1011.5 - 0.0 - Partly cloudy 10 - - - -
04/02:00am 22.2 SSE 11 13 1011.8 - 0.0 - Partly cloudy 10 - - - -
04/01:30am 22.2 SSE 11 14 1011.9 - 0.0 - Partly cloudy 10 - - - -
04/01:00am 22.1 S 11 13 1012.3 - 0.0 - Partly cloudy 10 - - - -
04/12:30am 22.3 S 11 15 1012.1 - 0.0 - - 10 - - - -
04/12:00am 22.0 S 9 12 1012.2 - 0.0 - Mostly clear 10 - - - -
 
Date/Time
WST
Temp

°C
Wind Pressure Rain
since 9am
mm
Weather Cloud Vis
km
Sea
Height
m
Swell
Dir
 
Speed
knots
Gust
knots
hPa Trend Height
m
Period
s
Dir
03/11:30pm 21.9 S 9 12 1012.5 - 0.0 - - 10 - - - -
03/11:00pm 22.1 S 11 14 1012.6 - 0.0 - - 10 - - - -
03/10:30pm 22.2 S 9 12 1012.6 - 0.0 - - 10 - - - -
03/10:00pm 22.6 S 11 14 1012.9 - 0.0 - Partly cloudy 10 - - - -
03/09:30pm 22.8 S 11 13 1012.8 - 0.0 - Partly cloudy 10 - - - -
03/09:00pm 22.8 S 10 13 1012.7 - 0.0 - Mostly clear 10 - - - -
03/08:30pm 22.9 S 10 12 1012.7 - 0.0 - Partly cloudy 10 - - - -
03/08:00pm 23.1 S 10 12 1012.7 - 0.0 - Partly cloudy 10 - - - -
03/07:30pm 24.4 S 11 14 1012.5 - 0.0 - Partly cloudy 10 - - - -
03/07:00pm 24.6 SSE 11 15 1012.2 - 0.0 - - 10 - - - -
03/06:30pm 24.5 S 11 13 1012.0 - 0.0 - - 10 - - - -
03/06:00pm 25.0 S 11 14 1011.6 - 0.0 - - 10 - - - -
03/05:30pm 25.9 S 12 15 1011.3 - 0.0 - - 10 - - - -
03/05:00pm 26.6 S 13 17 1011.3 - 0.0 - - 10 - - - -
03/04:30pm 27.0 S 15 18 1011.3 - 0.0 - - 10 - - - -
03/04:00pm 26.0 S 14 18 1011.4 - 0.0 - - 10 - - - -
03/03:30pm 25.5 S 14 18 1011.6 - 0.0 - - 10 - - - -
03/03:00pm 25.1 S 15 18 1011.7 - 0.0 Fine Partly cloudy 30 - - - -
03/02:30pm 25.3 S 15 19 1012.0 - 0.0 - - 10 - - - -
03/02:00pm 24.2 SSW 15 19 1012.4 - 0.0 - - 10 - - - -
03/01:30pm 24.4 SSW 15 19 1012.8 - 0.0 - - 10 - - - -
03/01:00pm 23.8 SSW 15 19 1013.2 - 0.0 - - 10 - - - -
03/12:30pm 23.4 SSW 16 19 1013.6 - 0.0 - - 10 - - - -
03/12:00pm 24.5 S 15 19 1014.0 - 0.0 - - 10 - - - -
03/11:30am 23.7 S 14 18 1014.3 - 0.0 - - 10 - - - -
03/11:00am 24.2 S 12 17 1014.6 - 0.0 - - 10 - - - -
03/10:30am 27.0 SE 11 15 1014.9 - 0.0 - - 10 - - - -
03/10:00am 25.8 SE 11 15 1015.3 - 0.0 - - 10 - - - -
03/09:30am 24.2 SE 13 16 1015.4 - 0.0 - - 10 - - - -
03/09:00am 22.2 SE 13 17 1015.3 - 0.0 Fine Mostly clear 27 - - - -
03/08:30am 20.1 SSE 14 18 1015.4 - 0.0 - - 10 - - - -
03/08:00am 18.6 SSE 13 16 1015.2 - 0.0 - - 10 - - - -
03/07:30am 17.0 SSE 10 12 1015.0 - 0.0 - - 10 - - - -
03/07:00am 15.6 SSE 8 11 1014.8 - 0.0 - - 10 - - - -
03/06:30am 15.5 SSE 8 10 1014.4 - 0.0 - - 10 - - - -
03/06:00am 15.4 SSE 8 9 1014.3 - 0.0 - - 10 - - - -
03/05:30am 15.6 SSE 8 9 1014.1 - 0.0 - - 10 - - - -
03/05:00am 15.8 SSE 8 9 1014.1 - 0.0 - - 10 - - - -
03/04:30am 16.5 SSE 9 11 1014.0 - 0.0 - - 10 - - - -
03/04:00am 16.8 SSE 10 12 1013.9 - 0.0 - - 10 - - - -
03/03:30am 17.1 SSE 8 11 1014.3 - 0.0 - - 10 - - - -
03/03:00am 17.4 SSE 8 11 1014.2 - 0.0 - - 10 - - - -
03/02:30am 18.0 SSE 9 11 1014.4 - 0.0 - - 10 - - - -
03/02:00am 18.6 SSE 10 13 1014.4 - 0.0 - - 10 - - - -
03/01:30am 19.2 SSE 11 13 1014.5 - 0.0 - - 10 - - - -
03/01:00am 19.7 SSE 12 16 1014.5 - 0.0 - - 10 - - - -
03/12:30am 19.9 SSE 13 17 1014.6 - 0.0 - - 10 - - - -
03/12:00am 20.1 SSE 13 17 1014.8 - 0.0 - - 10 - - - -
 
Date/Time
WST
Temp

°C
Wind Pressure Rain
since 9am
mm
Weather Cloud Vis
km
Sea
Height
m
Swell
Dir
 
Speed
knots
Gust
knots
hPa Trend Height
m
Period
s
Dir
02/11:30pm 20.3 SSE 14 18 1014.7 - 0.0 - - 10 - - - -
02/11:00pm 20.5 S 12 17 1015.0 - 0.0 - - 10 - - - -
02/10:30pm 20.3 S 11 15 1015.1 - 0.0 - - 10 - - - -
02/10:00pm 20.5 SSW 13 16 1015.3 - 0.0 - - 10 - - - -
02/09:30pm 20.6 SSW 12 16 1015.3 - 0.0 - - 10 - - - -
02/09:00pm 20.7 SSW 12 16 1015.5 - 0.0 - - 10 - - - -
02/08:30pm 20.8 SSW 11 15 1015.5 - 0.0 - - 10 - - - -
02/08:00pm 21.0 SSW 11 14 1015.5 - 0.0 - - 10 - - - -
02/07:30pm 21.2 SSW 11 14 1015.3 - 0.0 - - 10 - - - -
02/07:00pm 21.2 SSW 10 12 1015.1 - 0.0 - - 10 - - - -
02/06:30pm 21.1 SSW 8 9 1014.8 - 0.0 - - 10 - - - -
02/06:00pm 21.8 SSW 8 11 1014.7 - 0.0 - - 10 - - - -
02/05:30pm 22.9 SW 11 13 1014.3 - 0.0 - - 10 - - - -
02/05:00pm 25.5 SSW 14 18 1014.0 - 0.0 - - 10 - - - -
02/04:30pm 26.0 S 16 21 1014.0 - 0.0 - - 10 - - - -
02/04:00pm 26.1 S 16 21 1014.1 - 0.0 - - 10 - - - -
02/03:30pm 25.7 S 19 23 1014.2 - 0.0 - - 10 - - - -
02/03:00pm 25.4 S 19 23 1014.3 - 0.0 Fine Clear 30 - - - -
02/02:30pm 24.6 SSW 19 24 1014.4 - 0.0 - - 10 - - - -
02/02:00pm 24.5 SSW 18 23 1014.6 - 0.0 - - 10 - - - -
02/01:48pm 23.9 SSW 20 23 1014.8 - 0.0 - - 10 - - - -
02/01:30pm 24.0 S 18 22 1014.9 - 0.0 - - 10 - - - -
02/01:00pm 23.4 S 18 23 1015.4 - 0.0 - - 10 - - - -
02/12:30pm 23.7 S 17 21 1015.9 - 0.0 - - 10 - - - -
02/12:00pm 22.6 S 18 22 1016.3 - 0.0 - - 10 - - - -
02/11:30am 22.2 S 18 23 1016.8 - 0.0 - - 10 - - - -
02/11:00am 22.2 SSE 19 23 1017.3 - 0.0 - - 10 - - - -
02/10:30am 21.1 SSE 18 22 1017.6 - 0.0 - - 10 - - - -
02/10:00am 20.5 SSE 17 22 1017.8 - 0.0 - - 10 - - - -
02/09:30am 19.8 SSE 18 23 1017.6 - 0.0 - - 10 - - - -
02/09:00am 19.5 SSE 16 24 1017.7 - 0.0 Fine Clear 25 - - - -
02/08:30am 18.8 SSE 20 25 1017.4 - 0.0 - - 10 - - - -
02/08:00am 18.0 SSE 16 21 1017.4 - 0.0 - - 10 - - - -
02/07:30am 17.0 SSE 13 17 1017.2 - 0.0 - - 10 - - - -

Other Formats:

Comma delimited format used in spreadsheet applications
http://www.bom.gov.au/fwo/IDW60701/IDW60701.94300.axf

JavaScript Object Notation format (JSON) in row-major order
http://www.bom.gov.au/fwo/IDW60701/IDW60701.94300.json